Black Creek, New York
Current Conditions -  °F | °C
As of 3:15 PM on Friday 31 Oct 2014 (Local Time) from KOLE Reporting Station
Drizzle Drizzle  
Wind Chill:   Ceiling: 1500
Heat Index:   Visibility: 10mi
Dew Point:   Wind: 5mph
Humidity: 100%   Direction: 160°SSE
Pressure: 29.86"   Gusts: NA
Location:  42.28°N, 78.23°W
Report Text: KOLE 311915Z AUTO 16004KT 10SM -DZ BKN015 BKN050 OVC075 05/05 A2986 RMK AO2
Loading
Personal Weather Stations






























Interactive Weather Map
Tropical Storm Tracking
New forecast layout! Learn more

10-Day Weather Forecast

Advertisements
Track Severe Weather on mobile